sensor_id;sensor_type;location;lat;lon;timestamp;P1;durP1;ratioP1;P2;durP2;ratioP2
60352;SDS011;46196;52.970;6.954;2023-03-14T00:01:52;25.48;;;6.22;;
60352;SDS011;46196;52.970;6.954;2023-03-14T00:04:18;23.30;;;5.70;;
60352;SDS011;46196;52.970;6.954;2023-03-14T00:06:44;28.70;;;5.53;;
60352;SDS011;46196;52.970;6.954;2023-03-14T00:09:12;20.08;;;5.15;;
60352;SDS011;46196;52.970;6.954;2023-03-14T00:11:38;31.27;;;5.18;;
60352;SDS011;46196;52.970;6.954;2023-03-14T00:14:04;24.05;;;5.03;;
60352;SDS011;46196;52.970;6.954;2023-03-14T00:16:30;20.13;;;4.32;;
60352;SDS011;46196;52.970;6.954;2023-03-14T00:18:57;20.67;;;4.80;;
60352;SDS011;46196;52.970;6.954;2023-03-14T00:21:24;17.17;;;4.55;;
60352;SDS011;46196;52.970;6.954;2023-03-14T00:23:50;18.27;;;5.03;;
60352;SDS011;46196;52.970;6.954;2023-03-14T00:26:18;29.85;;;6.82;;
60352;SDS011;46196;52.970;6.954;2023-03-14T00:28:45;20.17;;;5.75;;
60352;SDS011;46196;52.970;6.954;2023-03-14T00:31:13;19.15;;;4.65;;
60352;SDS011;46196;52.970;6.954;2023-03-14T00:33:40;23.45;;;5.10;;
60352;SDS011;46196;52.970;6.954;2023-03-14T00:36:07;21.65;;;5.40;;
60352;SDS011;46196;52.970;6.954;2023-03-14T00:38:35;21.15;;;4.82;;
60352;SDS011;46196;52.970;6.954;2023-03-14T00:41:05;28.63;;;6.40;;
60352;SDS011;46196;52.970;6.954;2023-03-14T00:43:35;26.13;;;5.60;;
60352;SDS011;46196;52.970;6.954;2023-03-14T00:46:01;21.38;;;5.18;;
60352;SDS011;46196;52.970;6.954;2023-03-14T00:48:27;23.13;;;4.88;;
60352;SDS011;46196;52.970;6.954;2023-03-14T00:50:54;19.30;;;5.72;;
60352;SDS011;46196;52.970;6.954;2023-03-14T00:53:19;20.10;;;4.80;;
60352;SDS011;46196;52.970;6.954;2023-03-14T00:55:45;16.38;;;5.05;;
60352;SDS011;46196;52.970;6.954;2023-03-14T00:58:12;15.75;;;5.45;;
60352;SDS011;46196;52.970;6.954;2023-03-14T01:00:40;17.90;;;6.32;;
60352;SDS011;46196;52.970;6.954;2023-03-14T01:03:06;14.05;;;5.65;;
60352;SDS011;46196;52.970;6.954;2023-03-14T01:05:33;10.93;;;4.13;;
60352;SDS011;46196;52.970;6.954;2023-03-14T01:07:59;13.15;;;5.10;;
60352;SDS011;46196;52.970;6.954;2023-03-14T01:10:25;17.42;;;5.35;;
60352;SDS011;46196;52.970;6.954;2023-03-14T01:12:51;13.85;;;5.07;;
60352;SDS011;46196;52.970;6.954;2023-03-14T01:15:17;16.48;;;5.10;;
60352;SDS011;46196;52.970;6.954;2023-03-14T01:17:42;15.98;;;5.70;;
60352;SDS011;46196;52.970;6.954;2023-03-14T01:20:10;13.75;;;6.13;;
60352;SDS011;46196;52.970;6.954;2023-03-14T01:22:39;20.38;;;6.15;;
60352;SDS011;46196;52.970;6.954;2023-03-14T01:25:06;14.23;;;4.88;;
60352;SDS011;46196;52.970;6.954;2023-03-14T01:27:33;15.30;;;5.20;;
60352;SDS011;46196;52.970;6.954;2023-03-14T01:29:59;11.68;;;5.13;;
60352;SDS011;46196;52.970;6.954;2023-03-14T01:32:25;14.07;;;4.72;;
60352;SDS011;46196;52.970;6.954;2023-03-14T01:34:51;11.82;;;4.60;;
60352;SDS011;46196;52.970;6.954;2023-03-14T01:37:17;13.80;;;4.72;;
60352;SDS011;46196;52.970;6.954;2023-03-14T01:39:43;13.30;;;5.03;;
60352;SDS011;46196;52.970;6.954;2023-03-14T01:42:09;10.90;;;4.35;;
60352;SDS011;46196;52.970;6.954;2023-03-14T01:44:48;18.55;;;5.18;;
60352;SDS011;46196;52.970;6.954;2023-03-14T01:47:18;12.68;;;4.78;;
60352;SDS011;46196;52.970;6.954;2023-03-14T01:49:45;16.38;;;4.63;;
60352;SDS011;46196;52.970;6.954;2023-03-14T01:52:16;10.07;;;3.90;;
60352;SDS011;46196;52.970;6.954;2023-03-14T01:54:55;13.35;;;4.75;;
60352;SDS011;46196;52.970;6.954;2023-03-14T01:57:27;14.48;;;5.10;;
60352;SDS011;46196;52.970;6.954;2023-03-14T02:00:19;16.67;;;5.22;;
60352;SDS011;46196;52.970;6.954;2023-03-14T02:02:48;13.00;;;3.97;;
60352;SDS011;46196;52.970;6.954;2023-03-14T02:05:16;20.55;;;5.65;;
60352;SDS011;46196;52.970;6.954;2023-03-14T02:07:54;19.80;;;5.18;;
60352;SDS011;46196;52.970;6.954;2023-03-14T02:10:22;10.40;;;3.78;;
60352;SDS011;46196;52.970;6.954;2023-03-14T02:12:50;16.38;;;5.43;;
60352;SDS011;46196;52.970;6.954;2023-03-14T02:15:18;13.70;;;3.90;;
60352;SDS011;46196;52.970;6.954;2023-03-14T02:17:44;16.45;;;4.35;;
60352;SDS011;46196;52.970;6.954;2023-03-14T02:20:17;16.15;;;4.88;;
60352;SDS011;46196;52.970;6.954;2023-03-14T02:22:45;16.65;;;5.28;;
60352;SDS011;46196;52.970;6.954;2023-03-14T02:27:49;14.90;;;3.97;;
60352;SDS011;46196;52.970;6.954;2023-03-14T02:30:26;21.95;;;4.70;;
60352;SDS011;46196;52.970;6.954;2023-03-14T02:32:55;13.52;;;4.45;;
60352;SDS011;46196;52.970;6.954;2023-03-14T02:35:26;14.10;;;4.93;;
60352;SDS011;46196;52.970;6.954;2023-03-14T02:38:03;14.65;;;5.00;;
60352;SDS011;46196;52.970;6.954;2023-03-14T02:40:40;9.50;;;4.13;;
60352;SDS011;46196;52.970;6.954;2023-03-14T02:43:06;13.57;;;4.55;;
60352;SDS011;46196;52.970;6.954;2023-03-14T02:45:33;19.38;;;5.47;;
60352;SDS011;46196;52.970;6.954;2023-03-14T02:48:06;19.30;;;5.80;;
60352;SDS011;46196;52.970;6.954;2023-03-14T02:50:36;17.00;;;5.63;;
60352;SDS011;46196;52.970;6.954;2023-03-14T02:53:03;14.38;;;5.32;;
60352;SDS011;46196;52.970;6.954;2023-03-14T02:55:29;13.90;;;4.80;;
60352;SDS011;46196;52.970;6.954;2023-03-14T02:57:55;22.60;;;5.88;;
60352;SDS011;46196;52.970;6.954;2023-03-14T03:00:20;15.98;;;5.60;;
60352;SDS011;46196;52.970;6.954;2023-03-14T03:02:46;17.33;;;5.03;;
60352;SDS011;46196;52.970;6.954;2023-03-14T03:05:12;14.05;;;4.80;;
60352;SDS011;46196;52.970;6.954;2023-03-14T03:07:38;16.23;;;5.03;;
60352;SDS011;46196;52.970;6.954;2023-03-14T03:10:04;14.73;;;4.97;;
60352;SDS011;46196;52.970;6.954;2023-03-14T03:12:30;12.25;;;4.57;;
60352;SDS011;46196;52.970;6.954;2023-03-14T03:14:56;13.65;;;4.82;;
60352;SDS011;46196;52.970;6.954;2023-03-14T03:17:21;18.50;;;5.28;;
60352;SDS011;46196;52.970;6.954;2023-03-14T03:19:47;15.10;;;4.97;;
60352;SDS011;46196;52.970;6.954;2023-03-14T03:22:13;12.38;;;4.95;;
60352;SDS011;46196;52.970;6.954;2023-03-14T03:24:39;13.52;;;5.55;;
60352;SDS011;46196;52.970;6.954;2023-03-14T03:27:04;8.45;;;4.15;;
60352;SDS011;46196;52.970;6.954;2023-03-14T03:29:30;10.27;;;3.83;;
60352;SDS011;46196;52.970;6.954;2023-03-14T03:31:56;12.93;;;3.83;;
60352;SDS011;46196;52.970;6.954;2023-03-14T03:34:22;9.13;;;3.20;;
60352;SDS011;46196;52.970;6.954;2023-03-14T03:36:47;7.68;;;3.35;;
60352;SDS011;46196;52.970;6.954;2023-03-14T03:39:13;11.38;;;3.95;;
60352;SDS011;46196;52.970;6.954;2023-03-14T03:41:39;11.57;;;4.40;;
60352;SDS011;46196;52.970;6.954;2023-03-14T03:44:05;11.52;;;3.67;;
60352;SDS011;46196;52.970;6.954;2023-03-14T03:46:31;12.23;;;3.35;;
60352;SDS011;46196;52.970;6.954;2023-03-14T03:48:58;9.05;;;3.10;;
60352;SDS011;46196;52.970;6.954;2023-03-14T03:51:25;10.88;;;3.80;;
60352;SDS011;46196;52.970;6.954;2023-03-14T03:53:51;8.00;;;3.60;;
60352;SDS011;46196;52.970;6.954;2023-03-14T03:56:17;13.13;;;4.80;;
60352;SDS011;46196;52.970;6.954;2023-03-14T03:58:43;9.68;;;4.10;;
60352;SDS011;46196;52.970;6.954;2023-03-14T04:01:09;14.50;;;5.15;;
60352;SDS011;46196;52.970;6.954;2023-03-14T04:03:36;8.73;;;4.60;;
60352;SDS011;46196;52.970;6.954;2023-03-14T04:06:05;17.90;;;4.72;;
60352;SDS011;46196;52.970;6.954;2023-03-14T04:08:32;13.73;;;5.55;;
60352;SDS011;46196;52.970;6.954;2023-03-14T04:10:59;9.68;;;4.47;;
60352;SDS011;46196;52.970;6.954;2023-03-14T04:13:26;9.93;;;4.93;;
60352;SDS011;46196;52.970;6.954;2023-03-14T04:15:53;13.20;;;5.15;;
60352;SDS011;46196;52.970;6.954;2023-03-14T04:18:19;13.02;;;4.53;;
60352;SDS011;46196;52.970;6.954;2023-03-14T04:20:49;17.67;;;4.97;;
60352;SDS011;46196;52.970;6.954;2023-03-14T04:23:19;19.00;;;5.03;;
60352;SDS011;46196;52.970;6.954;2023-03-14T04:25:45;22.08;;;5.95;;
60352;SDS011;46196;52.970;6.954;2023-03-14T04:28:11;12.52;;;4.43;;
60352;SDS011;46196;52.970;6.954;2023-03-14T04:30:37;13.27;;;10.85;;
60352;SDS011;46196;52.970;6.954;2023-03-14T04:33:02;15.35;;;4.60;;
60352;SDS011;46196;52.970;6.954;2023-03-14T04:35:30;13.18;;;4.35;;
60352;SDS011;46196;52.970;6.954;2023-03-14T04:37:56;13.45;;;4.82;;
60352;SDS011;46196;52.970;6.954;2023-03-14T04:40:22;14.07;;;4.07;;
60352;SDS011;46196;52.970;6.954;2023-03-14T04:42:48;12.75;;;4.85;;
60352;SDS011;46196;52.970;6.954;2023-03-14T04:45:13;10.77;;;4.70;;
60352;SDS011;46196;52.970;6.954;2023-03-14T04:47:39;18.52;;;4.50;;
60352;SDS011;46196;52.970;6.954;2023-03-14T04:50:05;13.75;;;4.63;;
60352;SDS011;46196;52.970;6.954;2023-03-14T04:52:31;13.55;;;5.05;;
60352;SDS011;46196;52.970;6.954;2023-03-14T04:54:57;8.55;;;5.22;;
60352;SDS011;46196;52.970;6.954;2023-03-14T04:57:23;16.80;;;4.43;;
60352;SDS011;46196;52.970;6.954;2023-03-14T04:59:48;12.77;;;4.63;;
60352;SDS011;46196;52.970;6.954;2023-03-14T05:02:14;7.38;;;3.80;;
60352;SDS011;46196;52.970;6.954;2023-03-14T05:04:40;10.05;;;4.97;;
60352;SDS011;46196;52.970;6.954;2023-03-14T05:07:06;12.35;;;4.68;;
60352;SDS011;46196;52.970;6.954;2023-03-14T05:09:31;12.13;;;4.45;;
60352;SDS011;46196;52.970;6.954;2023-03-14T05:11:57;10.55;;;5.53;;
60352;SDS011;46196;52.970;6.954;2023-03-14T05:14:23;11.05;;;5.43;;
60352;SDS011;46196;52.970;6.954;2023-03-14T05:16:48;15.52;;;4.85;;
60352;SDS011;46196;52.970;6.954;2023-03-14T05:19:14;17.60;;;6.22;;
60352;SDS011;46196;52.970;6.954;2023-03-14T05:21:40;10.50;;;5.15;;
60352;SDS011;46196;52.970;6.954;2023-03-14T05:24:06;11.05;;;5.40;;
60352;SDS011;46196;52.970;6.954;2023-03-14T05:26:32;13.63;;;5.28;;
60352;SDS011;46196;52.970;6.954;2023-03-14T05:28:57;13.77;;;6.22;;
60352;SDS011;46196;52.970;6.954;2023-03-14T05:31:23;13.65;;;5.68;;
60352;SDS011;46196;52.970;6.954;2023-03-14T05:33:49;12.88;;;6.38;;
60352;SDS011;46196;52.970;6.954;2023-03-14T05:36:15;12.60;;;5.30;;
60352;SDS011;46196;52.970;6.954;2023-03-14T05:38:40;16.13;;;6.00;;
60352;SDS011;46196;52.970;6.954;2023-03-14T05:41:06;19.83;;;5.80;;
60352;SDS011;46196;52.970;6.954;2023-03-14T05:43:32;12.23;;;5.78;;
60352;SDS011;46196;52.970;6.954;2023-03-14T05:45:58;13.82;;;5.20;;
60352;SDS011;46196;52.970;6.954;2023-03-14T05:48:24;10.85;;;5.03;;
60352;SDS011;46196;52.970;6.954;2023-03-14T05:50:56;14.85;;;5.25;;
60352;SDS011;46196;52.970;6.954;2023-03-14T05:53:22;13.45;;;4.95;;
60352;SDS011;46196;52.970;6.954;2023-03-14T05:55:54;16.30;;;5.85;;
60352;SDS011;46196;52.970;6.954;2023-03-14T05:58:21;10.95;;;4.93;;
60352;SDS011;46196;52.970;6.954;2023-03-14T06:00:47;12.52;;;5.82;;
60352;SDS011;46196;52.970;6.954;2023-03-14T06:03:14;14.15;;;5.70;;
60352;SDS011;46196;52.970;6.954;2023-03-14T06:05:39;15.38;;;5.50;;
60352;SDS011;46196;52.970;6.954;2023-03-14T06:08:05;12.80;;;5.45;;
60352;SDS011;46196;52.970;6.954;2023-03-14T06:10:31;13.73;;;5.50;;
60352;SDS011;46196;52.970;6.954;2023-03-14T06:12:57;11.88;;;4.15;;
60352;SDS011;46196;52.970;6.954;2023-03-14T06:15:23;17.52;;;5.88;;
60352;SDS011;46196;52.970;6.954;2023-03-14T06:17:49;14.98;;;4.75;;
60352;SDS011;46196;52.970;6.954;2023-03-14T06:20:14;12.93;;;5.05;;
60352;SDS011;46196;52.970;6.954;2023-03-14T06:22:40;11.32;;;4.38;;
60352;SDS011;46196;52.970;6.954;2023-03-14T06:25:08;13.68;;;4.95;;
60352;SDS011;46196;52.970;6.954;2023-03-14T06:27:34;14.48;;;4.85;;
60352;SDS011;46196;52.970;6.954;2023-03-14T06:30:00;17.63;;;5.57;;
60352;SDS011;46196;52.970;6.954;2023-03-14T06:32:26;8.88;;;4.32;;
60352;SDS011;46196;52.970;6.954;2023-03-14T06:34:52;13.43;;;5.60;;
60352;SDS011;46196;52.970;6.954;2023-03-14T06:37:18;16.10;;;6.15;;
60352;SDS011;46196;52.970;6.954;2023-03-14T06:39:44;10.77;;;4.25;;
60352;SDS011;46196;52.970;6.954;2023-03-14T06:42:10;19.95;;;7.00;;
60352;SDS011;46196;52.970;6.954;2023-03-14T06:44:36;15.35;;;5.05;;
60352;SDS011;46196;52.970;6.954;2023-03-14T06:47:02;8.93;;;4.45;;
60352;SDS011;46196;52.970;6.954;2023-03-14T06:49:27;17.48;;;5.32;;
60352;SDS011;46196;52.970;6.954;2023-03-14T06:51:53;15.60;;;5.68;;
60352;SDS011;46196;52.970;6.954;2023-03-14T06:54:19;17.38;;;4.97;;
60352;SDS011;46196;52.970;6.954;2023-03-14T06:56:45;11.40;;;4.60;;
60352;SDS011;46196;52.970;6.954;2023-03-14T06:59:11;13.95;;;4.43;;
60352;SDS011;46196;52.970;6.954;2023-03-14T07:01:37;12.75;;;5.60;;
60352;SDS011;46196;52.970;6.954;2023-03-14T07:04:02;15.25;;;5.07;;
60352;SDS011;46196;52.970;6.954;2023-03-14T07:06:29;11.48;;;4.88;;
60352;SDS011;46196;52.970;6.954;2023-03-14T07:08:55;14.88;;;4.85;;
60352;SDS011;46196;52.970;6.954;2023-03-14T07:11:21;6.70;;;4.20;;
60352;SDS011;46196;52.970;6.954;2023-03-14T07:13:47;11.27;;;4.70;;
60352;SDS011;46196;52.970;6.954;2023-03-14T07:16:13;10.10;;;5.45;;
60352;SDS011;46196;52.970;6.954;2023-03-14T07:18:39;13.80;;;5.50;;
60352;SDS011;46196;52.970;6.954;2023-03-14T07:21:06;11.32;;;5.50;;
60352;SDS011;46196;52.970;6.954;2023-03-14T07:23:32;11.30;;;4.53;;
60352;SDS011;46196;52.970;6.954;2023-03-14T07:25:58;7.00;;;4.03;;
60352;SDS011;46196;52.970;6.954;2023-03-14T07:28:24;13.40;;;4.40;;
60352;SDS011;46196;52.970;6.954;2023-03-14T07:30:52;10.20;;;4.28;;
60352;SDS011;46196;52.970;6.954;2023-03-14T07:33:18;5.65;;;2.15;;
60352;SDS011;46196;52.970;6.954;2023-03-14T07:35:46;6.93;;;2.10;;
60352;SDS011;46196;52.970;6.954;2023-03-14T07:38:13;6.30;;;1.70;;
60352;SDS011;46196;52.970;6.954;2023-03-14T07:40:39;9.10;;;2.40;;
60352;SDS011;46196;52.970;6.954;2023-03-14T07:43:05;8.38;;;2.65;;
60352;SDS011;46196;52.970;6.954;2023-03-14T07:45:31;6.13;;;2.42;;
60352;SDS011;46196;52.970;6.954;2023-03-14T07:47:57;10.90;;;2.78;;
60352;SDS011;46196;52.970;6.954;2023-03-14T07:50:23;4.68;;;2.50;;
60352;SDS011;46196;52.970;6.954;2023-03-14T07:52:50;4.88;;;2.90;;
60352;SDS011;46196;52.970;6.954;2023-03-14T07:55:16;9.98;;;3.22;;
60352;SDS011;46196;52.970;6.954;2023-03-14T07:57:42;8.07;;;2.70;;
60352;SDS011;46196;52.970;6.954;2023-03-14T08:00:08;6.55;;;2.42;;
60352;SDS011;46196;52.970;6.954;2023-03-14T08:02:34;4.10;;;2.20;;
60352;SDS011;46196;52.970;6.954;2023-03-14T08:05:02;7.05;;;2.25;;
60352;SDS011;46196;52.970;6.954;2023-03-14T08:07:28;7.85;;;2.22;;
60352;SDS011;46196;52.970;6.954;2023-03-14T08:09:54;5.75;;;2.33;;
60352;SDS011;46196;52.970;6.954;2023-03-14T08:12:20;14.07;;;2.40;;
60352;SDS011;46196;52.970;6.954;2023-03-14T08:14:46;5.03;;;1.90;;
60352;SDS011;46196;52.970;6.954;2023-03-14T08:17:12;5.45;;;2.25;;
60352;SDS011;46196;52.970;6.954;2023-03-14T08:19:37;6.05;;;2.40;;
60352;SDS011;46196;52.970;6.954;2023-03-14T08:22:04;9.80;;;3.63;;
60352;SDS011;46196;52.970;6.954;2023-03-14T08:24:30;4.50;;;3.53;;
60352;SDS011;46196;52.970;6.954;2023-03-14T08:26:56;3.88;;;2.33;;
60352;SDS011;46196;52.970;6.954;2023-03-14T08:29:22;5.63;;;3.28;;
60352;SDS011;46196;52.970;6.954;2023-03-14T08:31:47;5.90;;;1.80;;
60352;SDS011;46196;52.970;6.954;2023-03-14T08:34:14;5.45;;;2.50;;
60352;SDS011;46196;52.970;6.954;2023-03-14T08:36:40;4.75;;;2.00;;
60352;SDS011;46196;52.970;6.954;2023-03-14T08:39:06;5.45;;;2.08;;
60352;SDS011;46196;52.970;6.954;2023-03-14T08:41:33;4.35;;;1.63;;
60352;SDS011;46196;52.970;6.954;2023-03-14T08:44:05;2.92;;;1.63;;
60352;SDS011;46196;52.970;6.954;2023-03-14T08:46:31;5.82;;;2.05;;
60352;SDS011;46196;52.970;6.954;2023-03-14T08:48:57;3.60;;;1.75;;
60352;SDS011;46196;52.970;6.954;2023-03-14T08:51:23;5.57;;;1.67;;
60352;SDS011;46196;52.970;6.954;2023-03-14T08:53:49;8.20;;;1.90;;
60352;SDS011;46196;52.970;6.954;2023-03-14T08:56:15;6.10;;;1.83;;
60352;SDS011;46196;52.970;6.954;2023-03-14T08:58:41;2.65;;;1.63;;
60352;SDS011;46196;52.970;6.954;2023-03-14T09:01:07;3.72;;;1.90;;
60352;SDS011;46196;52.970;6.954;2023-03-14T09:03:35;2.33;;;1.75;;
60352;SDS011;46196;52.970;6.954;2023-03-14T09:06:04;4.57;;;1.85;;
60352;SDS011;46196;52.970;6.954;2023-03-14T09:08:31;4.88;;;1.88;;
60352;SDS011;46196;52.970;6.954;2023-03-14T09:10:57;7.32;;;2.22;;
60352;SDS011;46196;52.970;6.954;2023-03-14T09:13:23;4.90;;;1.80;;
60352;SDS011;46196;52.970;6.954;2023-03-14T09:15:52;6.65;;;2.08;;
60352;SDS011;46196;52.970;6.954;2023-03-14T09:18:18;6.45;;;2.30;;
60352;SDS011;46196;52.970;6.954;2023-03-14T09:20:44;4.40;;;2.40;;
60352;SDS011;46196;52.970;6.954;2023-03-14T09:23:10;6.57;;;2.28;;
60352;SDS011;46196;52.970;6.954;2023-03-14T09:25:36;5.68;;;2.42;;
60352;SDS011;46196;52.970;6.954;2023-03-14T09:28:02;2.47;;;2.05;;
60352;SDS011;46196;52.970;6.954;2023-03-14T09:30:27;5.43;;;2.30;;
60352;SDS011;46196;52.970;6.954;2023-03-14T09:32:53;9.82;;;3.08;;
60352;SDS011;46196;52.970;6.954;2023-03-14T09:35:19;4.97;;;2.90;;
60352;SDS011;46196;52.970;6.954;2023-03-14T09:37:45;4.90;;;2.92;;
60352;SDS011;46196;52.970;6.954;2023-03-14T09:40:15;8.27;;;2.78;;
60352;SDS011;46196;52.970;6.954;2023-03-14T09:42:43;11.40;;;3.00;;
60352;SDS011;46196;52.970;6.954;2023-03-14T09:45:28;12.70;;;2.90;;
60352;SDS011;46196;52.970;6.954;2023-03-14T09:48:00;16.42;;;3.35;;
60352;SDS011;46196;52.970;6.954;2023-03-14T09:50:42;10.25;;;3.00;;
60352;SDS011;46196;52.970;6.954;2023-03-14T09:53:14;8.90;;;2.60;;
60352;SDS011;46196;52.970;6.954;2023-03-14T09:55:46;10.32;;;3.08;;
60352;SDS011;46196;52.970;6.954;2023-03-14T09:58:16;7.32;;;2.53;;
60352;SDS011;46196;52.970;6.954;2023-03-14T10:00:44;7.28;;;2.90;;
60352;SDS011;46196;52.970;6.954;2023-03-14T10:05:37;15.20;;;2.95;;
60352;SDS011;46196;52.970;6.954;2023-03-14T10:08:03;14.15;;;3.40;;
60352;SDS011;46196;52.970;6.954;2023-03-14T10:10:30;13.35;;;3.25;;
60352;SDS011;46196;52.970;6.954;2023-03-14T10:13:00;19.92;;;3.42;;
60352;SDS011;46196;52.970;6.954;2023-03-14T10:15:39;18.63;;;3.95;;
60352;SDS011;46196;52.970;6.954;2023-03-14T10:18:09;12.15;;;4.35;;
60352;SDS011;46196;52.970;6.954;2023-03-14T10:20:41;20.45;;;4.85;;
60352;SDS011;46196;52.970;6.954;2023-03-14T10:25:45;12.25;;;3.38;;
60352;SDS011;46196;52.970;6.954;2023-03-14T10:28:24;17.80;;;3.58;;
60352;SDS011;46196;52.970;6.954;2023-03-14T10:30:50;20.33;;;3.97;;
60352;SDS011;46196;52.970;6.954;2023-03-14T10:33:20;16.33;;;3.55;;
60352;SDS011;46196;52.970;6.954;2023-03-14T10:36:01;24.13;;;3.17;;
60352;SDS011;46196;52.970;6.954;2023-03-14T10:38:31;15.43;;;3.45;;
60352;SDS011;46196;52.970;6.954;2023-03-14T10:40:58;11.95;;;3.78;;
60352;SDS011;46196;52.970;6.954;2023-03-14T10:43:26;23.45;;;4.13;;
60352;SDS011;46196;52.970;6.954;2023-03-14T10:45:57;17.80;;;4.18;;
60352;SDS011;46196;52.970;6.954;2023-03-14T10:48:33;16.35;;;3.97;;
60352;SDS011;46196;52.970;6.954;2023-03-14T10:51:07;18.50;;;3.42;;
60352;SDS011;46196;52.970;6.954;2023-03-14T10:54:11;14.82;;;3.38;;
60352;SDS011;46196;52.970;6.954;2023-03-14T10:56:38;18.40;;;3.30;;
60352;SDS011;46196;52.970;6.954;2023-03-14T10:59:11;16.88;;;3.15;;
60352;SDS011;46196;52.970;6.954;2023-03-14T11:15:41;13.57;;;3.63;;
60352;SDS011;46196;52.970;6.954;2023-03-14T11:21:03;19.13;;;3.92;;
60352;SDS011;46196;52.970;6.954;2023-03-14T11:26:40;11.13;;;2.72;;
60352;SDS011;46196;52.970;6.954;2023-03-14T11:29:21;13.05;;;2.80;;
60352;SDS011;46196;52.970;6.954;2023-03-14T11:32:11;12.63;;;2.90;;
60352;SDS011;46196;52.970;6.954;2023-03-14T11:35:03;12.90;;;3.25;;
60352;SDS011;46196;52.970;6.954;2023-03-14T11:37:41;14.32;;;2.90;;
60352;SDS011;46196;52.970;6.954;2023-03-14T11:40:17;17.15;;;3.20;;
60352;SDS011;46196;52.970;6.954;2023-03-14T11:42:46;8.65;;;2.42;;
60352;SDS011;46196;52.970;6.954;2023-03-14T11:45:29;9.63;;;3.10;;
60352;SDS011;46196;52.970;6.954;2023-03-14T11:48:10;7.78;;;2.72;;
60352;SDS011;46196;52.970;6.954;2023-03-14T11:50:40;11.40;;;2.20;;
60352;SDS011;46196;52.970;6.954;2023-03-14T11:53:11;8.77;;;2.95;;
60352;SDS011;46196;52.970;6.954;2023-03-14T11:55:43;9.32;;;2.63;;
60352;SDS011;46196;52.970;6.954;2023-03-14T11:58:15;15.00;;;2.47;;
60352;SDS011;46196;52.970;6.954;2023-03-14T12:00:54;11.85;;;2.72;;
60352;SDS011;46196;52.970;6.954;2023-03-14T12:08:58;7.90;;;2.38;;
60352;SDS011;46196;52.970;6.954;2023-03-14T12:14:23;3.85;;;1.95;;
60352;SDS011;46196;52.970;6.954;2023-03-14T12:16:55;13.75;;;2.40;;
60352;SDS011;46196;52.970;6.954;2023-03-14T12:22:05;4.43;;;2.45;;
60352;SDS011;46196;52.970;6.954;2023-03-14T12:25:06;6.85;;;2.20;;
60352;SDS011;46196;52.970;6.954;2023-03-14T12:27:42;7.25;;;2.30;;
60352;SDS011;46196;52.970;6.954;2023-03-14T12:30:38;7.85;;;2.20;;
60352;SDS011;46196;52.970;6.954;2023-03-14T12:33:10;10.43;;;2.53;;
60352;SDS011;46196;52.970;6.954;2023-03-14T12:35:40;8.55;;;2.95;;
60352;SDS011;46196;52.970;6.954;2023-03-14T12:38:09;6.00;;;2.00;;
60352;SDS011;46196;52.970;6.954;2023-03-14T12:43:45;10.30;;;2.55;;
60352;SDS011;46196;52.970;6.954;2023-03-14T12:48:50;6.60;;;2.28;;
60352;SDS011;46196;52.970;6.954;2023-03-14T12:51:35;6.40;;;2.75;;
60352;SDS011;46196;52.970;6.954;2023-03-14T12:54:05;10.85;;;2.40;;
60352;SDS011;46196;52.970;6.954;2023-03-14T12:56:58;4.72;;;2.38;;
60352;SDS011;46196;52.970;6.954;2023-03-14T12:59:36;12.10;;;2.90;;
60352;SDS011;46196;52.970;6.954;2023-03-14T13:05:17;8.50;;;2.47;;
60352;SDS011;46196;52.970;6.954;2023-03-14T13:15:43;5.82;;;2.03;;
60352;SDS011;46196;52.970;6.954;2023-03-14T13:18:12;8.75;;;3.55;;
60352;SDS011;46196;52.970;6.954;2023-03-14T13:21:37;12.93;;;2.40;;
60352;SDS011;46196;52.970;6.954;2023-03-14T13:23:40;11.67;;;2.63;;
60352;SDS011;46196;52.970;6.954;2023-03-14T13:26:18;10.52;;;3.10;;
60352;SDS011;46196;52.970;6.954;2023-03-14T13:28:44;18.85;;;3.17;;
60352;SDS011;46196;52.970;6.954;2023-03-14T13:31:15;8.02;;;2.80;;
60352;SDS011;46196;52.970;6.954;2023-03-14T13:33:57;12.38;;;2.90;;
60352;SDS011;46196;52.970;6.954;2023-03-14T13:36:24;5.03;;;2.55;;
60352;SDS011;46196;52.970;6.954;2023-03-14T13:39:00;10.32;;;2.80;;
60352;SDS011;46196;52.970;6.954;2023-03-14T13:41:27;10.07;;;2.72;;
60352;SDS011;46196;52.970;6.954;2023-03-14T13:44:02;12.35;;;2.30;;
60352;SDS011;46196;52.970;6.954;2023-03-14T13:46:33;8.35;;;2.20;;
60352;SDS011;46196;52.970;6.954;2023-03-14T13:49:03;10.98;;;2.58;;
60352;SDS011;46196;52.970;6.954;2023-03-14T13:51:31;9.63;;;2.22;;
60352;SDS011;46196;52.970;6.954;2023-03-14T13:54:01;4.85;;;2.42;;
60352;SDS011;46196;52.970;6.954;2023-03-14T13:56:31;4.43;;;2.25;;
60352;SDS011;46196;52.970;6.954;2023-03-14T13:58:57;14.00;;;2.63;;
60352;SDS011;46196;52.970;6.954;2023-03-14T14:01:24;6.75;;;1.88;;
60352;SDS011;46196;52.970;6.954;2023-03-14T14:04:05;7.57;;;2.22;;
60352;SDS011;46196;52.970;6.954;2023-03-14T14:06:38;7.35;;;2.35;;
60352;SDS011;46196;52.970;6.954;2023-03-14T14:09:11;5.25;;;2.30;;
60352;SDS011;46196;52.970;6.954;2023-03-14T14:12:05;8.15;;;2.50;;
60352;SDS011;46196;52.970;6.954;2023-03-14T14:14:38;6.38;;;2.28;;
60352;SDS011;46196;52.970;6.954;2023-03-14T14:17:09;7.75;;;2.53;;
60352;SDS011;46196;52.970;6.954;2023-03-14T14:19:37;6.93;;;2.50;;
60352;SDS011;46196;52.970;6.954;2023-03-14T14:22:05;8.68;;;2.45;;
60352;SDS011;46196;52.970;6.954;2023-03-14T14:24:33;6.20;;;2.33;;
60352;SDS011;46196;52.970;6.954;2023-03-14T14:27:02;10.15;;;2.33;;
60352;SDS011;46196;52.970;6.954;2023-03-14T14:29:57;9.65;;;2.20;;
60352;SDS011;46196;52.970;6.954;2023-03-14T14:32:26;10.45;;;2.47;;
60352;SDS011;46196;52.970;6.954;2023-03-14T14:37:24;7.53;;;2.13;;
60352;SDS011;46196;52.970;6.954;2023-03-14T14:39:50;9.30;;;2.53;;
60352;SDS011;46196;52.970;6.954;2023-03-14T14:42:19;10.23;;;2.80;;
60352;SDS011;46196;52.970;6.954;2023-03-14T14:44:49;8.45;;;2.38;;
60352;SDS011;46196;52.970;6.954;2023-03-14T14:47:18;6.63;;;2.30;;
60352;SDS011;46196;52.970;6.954;2023-03-14T14:49:46;9.13;;;2.50;;
60352;SDS011;46196;52.970;6.954;2023-03-14T14:52:14;5.60;;;2.10;;
60352;SDS011;46196;52.970;6.954;2023-03-14T14:54:43;7.57;;;3.00;;
60352;SDS011;46196;52.970;6.954;2023-03-14T14:57:22;7.13;;;2.10;;
60352;SDS011;46196;52.970;6.954;2023-03-14T14:59:50;10.80;;;2.55;;
60352;SDS011;46196;52.970;6.954;2023-03-14T15:02:33;3.63;;;1.80;;
60352;SDS011;46196;52.970;6.954;2023-03-14T15:05:05;6.13;;;1.88;;
60352;SDS011;46196;52.970;6.954;2023-03-14T15:07:36;5.55;;;1.90;;
60352;SDS011;46196;52.970;6.954;2023-03-14T15:10:02;9.85;;;2.10;;
60352;SDS011;46196;52.970;6.954;2023-03-14T15:12:28;13.13;;;2.55;;
60352;SDS011;46196;52.970;6.954;2023-03-14T15:14:54;7.18;;;2.55;;
60352;SDS011;46196;52.970;6.954;2023-03-14T15:17:22;3.97;;;1.88;;
60352;SDS011;46196;52.970;6.954;2023-03-14T15:19:49;6.50;;;2.03;;
60352;SDS011;46196;52.970;6.954;2023-03-14T15:22:15;11.82;;;2.50;;
60352;SDS011;46196;52.970;6.954;2023-03-14T15:24:41;7.82;;;1.90;;
60352;SDS011;46196;52.970;6.954;2023-03-14T15:27:12;9.52;;;3.15;;
60352;SDS011;46196;52.970;6.954;2023-03-14T15:29:39;13.52;;;2.90;;
60352;SDS011;46196;52.970;6.954;2023-03-14T15:32:05;11.02;;;2.70;;
60352;SDS011;46196;52.970;6.954;2023-03-14T15:34:34;9.68;;;2.50;;
60352;SDS011;46196;52.970;6.954;2023-03-14T15:37:00;5.80;;;2.45;;
60352;SDS011;46196;52.970;6.954;2023-03-14T15:39:32;6.57;;;2.60;;
60352;SDS011;46196;52.970;6.954;2023-03-14T15:42:00;6.07;;;2.55;;
60352;SDS011;46196;52.970;6.954;2023-03-14T15:44:26;9.73;;;2.20;;
60352;SDS011;46196;52.970;6.954;2023-03-14T15:46:52;6.50;;;2.83;;